Privodino, Russia
Current Conditions -  °F | °C
As of 3:30 AM on Tuesday 25 Nov 2014 (Local Time) from UUYY Reporting Station
Snow Showers Snow Showers  
Wind Chill: 15°   Ceiling: 1600
Heat Index: 25°   Visibility: 0.68mi
Dew Point: 21°   Wind: 9mph
Humidity: 86%   Direction: 230°SW
Pressure: 30.24"   Gusts: 16mph
Location:  61.08°N, 46.5°E
Report Text: UUYY 250030Z 23004G07MPS 1100 R19/P1500N SHSN SCT003 BKN016CBOVC066 M04/M06 Q1024 TEMPO 0700 +SHSN 1942//45 RMK QBB110QFE759/1012
Loading
Personal Weather Stations






























Interactive Weather Map New forecast layout! Learn more

10-Day Weather Forecast

Advertisements
Track Severe Weather on mobile